Time;durP1;ratioP1;P1;durP2;ratioP2;P2;SDS_P1;SDS_P2;PMS_P1;PMS_P2;Temp;Humidity;BMP_temperature;BMP_pressure;BME280_temperature;BME280_humidity;BME280_pressure;Samples;Min_cycle;Max_cycle;Signal;HPM_P1;HPM_P2
2022/07/23 00:00:13;;;;;;;9.80;8.20;;;23.90;90.80;;;;;;5048274;28;20122;-73
2022/07/23 00:02:45;;;;;;;11.00;7.38;;;23.80;91.10;;;;;;5030826;28;20666;-73
2022/07/23 00:05:16;;;;;;;11.95;7.93;;;23.80;91.60;;;;;;4989603;28;20064;-73
2022/07/23 00:07:48;;;;;;;7.25;6.00;;;23.70;91.50;;;;;;5042273;28;20513;-73
2022/07/23 00:10:20;;;;;;;7.22;4.85;;;23.60;87.60;;;;;;5027962;28;20052;-73
2022/07/23 00:12:52;;;;;;;7.88;5.35;;;23.70;80.70;;;;;;5026141;28;20405;-73
2022/07/23 00:15:23;;;;;;;7.45;5.20;;;23.80;79.60;;;;;;5025856;28;20053;-73
2022/07/23 00:17:55;;;;;;;7.05;5.63;;;23.70;79.30;;;;;;5028630;28;20033;-73
2022/07/23 00:20:27;;;;;;;6.72;5.70;;;23.70;79.20;;;;;;5046517;28;20094;-73
2022/07/23 00:22:59;;;;;;;9.85;5.72;;;23.60;83.30;;;;;;5030544;28;20041;-72
2022/07/23 00:25:30;;;;;;;7.30;6.22;;;23.50;85.00;;;;;;5027687;28;20049;-72
2022/07/23 00:28:03;;;;;;;7.05;5.90;;;23.30;85.60;;;;;;5013502;28;20052;-73
2022/07/23 00:30:35;;;;;;;8.63;6.43;;;23.10;86.90;;;;;;5029239;28;20161;-73
2022/07/23 00:33:07;;;;;;;11.90;5.95;;;23.00;89.00;;;;;;5027686;28;20041;-74
2022/07/23 00:35:40;;;;;;;9.80;7.20;;;22.90;91.20;;;;;;5025305;28;20107;-74
2022/07/23 00:38:12;;;;;;;9.20;7.05;;;22.60;92.80;;;;;;5025871;28;20208;-74
2022/07/23 00:40:44;;;;;;;9.48;7.15;;;22.30;94.00;;;;;;5012701;28;20051;-74
2022/07/23 00:43:11;;;;;;;8.50;6.63;;;22.00;95.50;;;;;;5030385;28;20048;-74
2022/07/23 00:45:42;;;;;;;8.20;6.93;;;21.60;98.90;;;;;;5023159;28;20052;-74
2022/07/23 00:48:14;;;;;;;7.60;6.90;;;21.40;99.60;;;;;;5026122;28;20054;-74
2022/07/23 00:50:46;;;;;;;11.00;7.20;;;21.20;99.90;;;;;;5045615;28;20067;-74
2022/07/23 00:53:19;;;;;;;9.00;8.07;;;21.20;99.90;;;;;;5030247;28;20053;-74
2022/07/23 00:55:51;;;;;;;;;;;21.10;99.90;;;;;;4994219;28;20572;-74
2022/07/23 00:58:23;;;;;;;10.05;8.18;;;21.10;99.90;;;;;;5033772;28;19925;-74
2022/07/23 01:00:55;;;;;;;11.15;8.75;;;20.90;99.90;;;;;;5029972;28;20396;-74
2022/07/23 01:03:27;;;;;;;9.80;8.80;;;20.80;99.90;;;;;;5033496;28;20068;-74
2022/07/23 01:05:59;;;;;;;11.10;8.70;;;20.70;99.90;;;;;;5033991;28;20396;-74
2022/07/23 01:08:31;;;;;;;9.82;8.82;;;20.70;99.90;;;;;;5032704;28;20103;-74
2022/07/23 01:11:03;;;;;;;10.65;9.30;;;20.60;99.90;;;;;;5034252;28;20049;-74
2022/07/23 01:13:35;;;;;;;10.98;9.88;;;20.40;99.90;;;;;;5049412;28;20432;-74
2022/07/23 01:16:07;;;;;;;10.80;9.43;;;20.40;99.90;;;;;;5021572;28;20132;-74
2022/07/23 01:18:39;;;;;;;13.30;9.88;;;20.20;99.90;;;;;;5028867;28;20052;-73
2022/07/23 01:21:16;;;;;;;10.95;9.07;;;20.10;99.90;;;;;;5018601;28;20102;-74
2022/07/23 01:23:48;;;;;;;11.40;9.63;;;20.00;99.90;;;;;;5041073;28;20136;-74
2022/07/23 01:26:20;;;;;;;10.98;9.70;;;19.90;99.90;;;;;;5038078;28;20381;-74
2022/07/23 01:28:52;;;;;;;10.35;9.10;;;19.80;99.90;;;;;;5052267;28;20103;-74
2022/07/23 01:31:24;;;;;;;10.65;9.13;;;19.70;99.90;;;;;;5034192;28;20505;-74
2022/07/23 01:33:56;;;;;;;10.95;9.88;;;19.60;99.90;;;;;;5035588;28;20040;-74
2022/07/23 01:36:28;;;;;;;9.75;8.82;;;19.60;99.90;;;;;;5028097;28;20037;-74
2022/07/23 01:38:59;;;;;;;13.43;10.30;;;19.60;99.90;;;;;;5048236;28;20041;-74
2022/07/23 01:41:26;;;;;;;10.25;9.25;;;19.50;99.90;;;;;;5034892;28;20145;-74
2022/07/23 01:43:58;;;;;;;11.23;9.43;;;19.50;99.90;;;;;;5027094;28;20037;-74
2022/07/23 01:46:30;;;;;;;10.30;8.50;;;19.60;99.90;;;;;;5033140;28;20060;-74
2022/07/23 01:49:02;;;;;;;10.13;9.13;;;19.50;99.90;;;;;;5031039;23;20057;-73
2022/07/23 01:51:59;;;;;;;10.85;8.85;;;19.50;99.90;;;;;;5019040;28;20108;-71
2022/07/23 01:54:35;;;;;;;9.75;8.68;;;19.60;99.90;;;;;;5014585;28;20046;-72
2022/07/23 01:57:08;;;;;;;11.63;10.30;;;19.60;99.90;;;;;;5015217;28;20053;-71
2022/07/23 01:59:40;;;;;;;12.07;9.52;;;19.50;99.90;;;;;;4993741;28;20296;-71
2022/07/23 02:02:12;;;;;;;10.82;9.20;;;19.50;99.90;;;;;;5024502;28;20108;-71
2022/07/23 02:04:44;;;;;;;10.98;9.88;;;19.50;99.90;;;;;;5016462;28;20052;-70
2022/07/23 02:07:17;;;;;;;11.70;9.40;;;19.40;99.90;;;;;;5026360;28;20053;-71
2022/07/23 02:09:51;;;;;;;10.82;9.73;;;19.40;99.90;;;;;;5011580;28;20453;-71
2022/07/23 02:12:22;;;;;;;10.65;9.57;;;19.30;99.90;;;;;;4993274;28;20077;-70
2022/07/23 02:14:54;;;;;;;10.52;9.52;;;19.30;99.90;;;;;;5012198;28;20042;-71
2022/07/23 02:17:26;;;;;;;11.45;10.23;;;19.40;99.90;;;;;;5018285;28;20050;-71
2022/07/23 02:20:01;;;;;;;10.90;9.30;;;19.40;99.90;;;;;;5012502;28;20056;-70
2022/07/23 02:22:33;;;;;;;10.50;8.95;;;19.50;99.90;;;;;;5019929;28;20041;-70
2022/07/23 02:25:06;;;;;;;10.85;9.30;;;19.40;99.90;;;;;;5001214;28;20069;-70
2022/07/23 02:27:33;;;;;;;12.38;9.80;;;19.50;99.90;;;;;;5002201;28;20104;-71
2022/07/23 02:30:07;;;;;;;12.52;10.35;;;19.40;99.90;;;;;;5010861;28;20100;-70
2022/07/23 02:32:39;;;;;;;10.82;9.38;;;19.30;99.90;;;;;;5022661;28;20510;-70
2022/07/23 02:35:11;;;;;;;11.63;9.43;;;19.30;99.90;;;;;;5006978;28;20045;-71
2022/07/23 02:37:43;;;;;;;10.20;8.68;;;19.30;99.90;;;;;;5017235;28;20049;-71
2022/07/23 02:40:15;;;;;;;9.10;8.20;;;19.30;99.90;;;;;;5008935;28;20046;-71
2022/07/23 02:42:47;;;;;;;9.55;8.52;;;19.30;99.90;;;;;;5026358;28;20049;-70
2022/07/23 02:45:19;;;;;;;11.15;9.43;;;19.30;99.90;;;;;;4998322;28;20527;-70
2022/07/23 02:47:52;;;;;;;9.55;8.65;;;19.30;99.90;;;;;;5016076;28;20046;-70
2022/07/23 02:50:24;;;;;;;10.23;8.88;;;19.30;99.90;;;;;;5016965;28;20791;-70
2022/07/23 02:52:57;;;;;;;9.30;8.27;;;19.30;99.90;;;;;;5028512;28;20530;-70
2022/07/23 02:55:29;;;;;;;9.60;8.70;;;19.40;99.90;;;;;;5046795;28;20041;-71
2022/07/23 02:58:02;;;;;;;12.90;8.52;;;19.40;99.90;;;;;;5029797;28;20056;-71
2022/07/23 03:00:33;;;;;;;8.60;7.80;;;19.40;99.90;;;;;;5030542;28;20045;-70
2022/07/23 03:03:06;;;;;;;9.02;8.10;;;19.40;99.90;;;;;;5062026;28;20051;-71
2022/07/23 03:05:38;;;;;;;9.10;8.20;;;19.40;99.90;;;;;;5032972;28;20052;-70
2022/07/23 03:08:10;;;;;;;8.90;7.88;;;19.30;99.90;;;;;;5056022;28;20133;-71
2022/07/23 03:10:46;;;;;;;9.10;8.20;;;19.30;99.90;;;;;;5018105;28;20040;-70
2022/07/23 03:13:17;;;;;;;8.48;7.22;;;19.30;99.90;;;;;;5028529;28;20064;-71
2022/07/23 03:15:49;;;;;;;8.98;8.10;;;19.30;99.90;;;;;;5047791;28;20100;-70
2022/07/23 03:18:21;;;;;;;8.40;7.57;;;19.20;99.90;;;;;;5050555;28;20099;-71
2022/07/23 03:20:53;;;;;;;8.35;7.65;;;19.20;99.90;;;;;;5033518;28;20045;-70
2022/07/23 03:23:25;;;;;;;9.27;8.38;;;19.20;99.90;;;;;;5017805;28;20034;-71
2022/07/23 03:25:57;;;;;;;9.30;7.45;;;19.20;99.90;;;;;;5047353;28;20037;-72
2022/07/23 03:28:28;;;;;;;8.77;7.88;;;19.20;99.90;;;;;;5049672;28;20045;-73
2022/07/23 03:31:00;;;;;;;10.63;8.25;;;19.10;99.90;;;;;;5024744;28;20072;-71
2022/07/23 03:33:32;;;;;;;9.23;8.07;;;19.10;99.90;;;;;;5010097;28;20057;-71
2022/07/23 03:36:04;;;;;;;9.25;8.35;;;19.10;99.90;;;;;;5032484;28;20059;-72
2022/07/23 03:38:39;;;;;;;9.50;8.57;;;19.00;99.90;;;;;;5033755;28;20045;-71
2022/07/23 03:41:11;;;;;;;8.73;7.82;;;19.00;99.90;;;;;;5024062;28;20484;-71
2022/07/23 03:43:44;;;;;;;8.83;7.83;;;19.00;99.90;;;;;;5046227;28;20091;-72
2022/07/23 03:46:15;;;;;;;9.45;8.50;;;19.00;99.90;;;;;;5044413;28;20056;-71
2022/07/23 03:48:47;;;;;;;9.20;8.07;;;19.00;99.90;;;;;;5011707;28;20120;-72
2022/07/23 03:51:19;;;;;;;10.60;8.60;;;19.00;99.90;;;;;;5022856;28;20099;-71
2022/07/23 03:53:46;;;;;;;9.00;8.10;;;19.00;99.90;;;;;;5033667;28;20050;-71
2022/07/23 03:56:13;;;;;;;12.57;8.48;;;18.90;99.90;;;;;;5033426;28;20376;-71
2022/07/23 03:58:44;;;;;;;9.82;8.60;;;18.90;99.90;;;;;;5018139;28;20041;-71
2022/07/23 04:01:16;;;;;;;9.32;8.07;;;19.00;99.90;;;;;;5011994;28;20041;-72
2022/07/23 04:03:48;;;;;;;9.38;8.15;;;19.10;99.90;;;;;;5040452;28;20923;-72
2022/07/23 04:06:20;;;;;;;8.75;7.90;;;19.10;99.90;;;;;;5048901;28;20454;-72
2022/07/23 04:08:53;;;;;;;11.52;8.68;;;19.20;99.90;;;;;;5051805;28;20083;-72
2022/07/23 04:11:25;;;;;;;9.80;8.25;;;19.20;99.90;;;;;;5027732;28;20073;-71
2022/07/23 04:13:57;;;;;;;8.98;7.95;;;19.20;99.90;;;;;;5052313;28;20068;-71
2022/07/23 04:16:31;;;;;;;9.23;8.32;;;19.20;99.90;;;;;;5033655;28;20467;-71
2022/07/23 04:19:04;;;;;;;9.30;8.15;;;19.20;99.90;;;;;;5034618;28;20052;-72
2022/07/23 04:21:48;;;;;;;9.70;7.72;;;19.10;99.90;;;;;;5042566;28;20127;-71
2022/07/23 04:24:19;;;;;;;10.55;7.95;;;19.00;99.90;;;;;;5036730;28;20856;-72
2022/07/23 04:26:51;;;;;;;8.48;7.63;;;18.90;99.90;;;;;;5048861;28;20068;-72
2022/07/23 04:29:24;;;;;;;9.70;8.13;;;19.00;99.90;;;;;;5046815;28;20451;-71
2022/07/23 04:31:57;;;;;;;9.10;8.18;;;19.00;99.90;;;;;;5035476;28;20111;-71
2022/07/23 04:34:29;;;;;;;9.00;8.10;;;19.00;99.90;;;;;;5050501;28;20049;-71
2022/07/23 04:37:01;;;;;;;9.90;8.30;;;19.00;99.90;;;;;;5049854;28;20046;-71
2022/07/23 04:39:30;;;;;;;10.30;8.18;;;19.00;99.90;;;;;;5058661;28;20067;-72
2022/07/23 04:42:02;;;;;;;11.57;8.50;;;19.10;99.90;;;;;;5047984;28;20098;-71
2022/07/23 04:44:34;;;;;;;9.70;8.70;;;19.10;99.90;;;;;;5046106;28;20107;-71
2022/07/23 04:47:06;;;;;;;10.77;8.70;;;19.10;99.90;;;;;;5049144;28;20055;-71
2022/07/23 04:49:38;;;;;;;9.32;8.32;;;19.10;99.90;;;;;;5049979;28;20037;-71
2022/07/23 04:52:10;;;;;;;9.27;8.38;;;19.20;99.90;;;;;;5036894;28;20090;-71
2022/07/23 04:54:42;;;;;;;9.65;8.65;;;19.20;99.90;;;;;;5044211;28;20479;-71
2022/07/23 04:57:14;;;;;;;9.75;8.85;;;19.10;99.90;;;;;;5039150;28;20082;-71
2022/07/23 04:59:45;;;;;;;9.82;8.75;;;19.00;99.90;;;;;;5031149;28;20049;-71
2022/07/23 05:02:17;;;;;;;9.20;8.40;;;18.90;99.90;;;;;;5038542;28;20108;-72
2022/07/23 05:04:49;;;;;;;8.98;8.18;;;19.00;99.90;;;;;;5038401;28;20048;-71
2022/07/23 05:07:21;;;;;;;10.15;8.55;;;19.10;99.90;;;;;;5052772;28;20128;-72
2022/07/23 05:09:53;;;;;;;10.27;8.85;;;19.20;99.90;;;;;;5031761;28;20043;-71
2022/07/23 05:12:24;;;;;;;10.50;9.38;;;19.30;99.90;;;;;;5036566;28;20164;-71
2022/07/23 05:14:52;;;;;;;11.00;8.80;;;19.40;99.90;;;;;;5051105;28;20047;-72
2022/07/23 05:17:25;;;;;;;10.50;9.23;;;19.50;99.90;;;;;;5042162;28;20073;-71
2022/07/23 05:19:52;;;;;;;9.80;8.85;;;19.50;99.90;;;;;;5035022;28;20033;-71
2022/07/23 05:22:24;;;;;;;10.50;9.45;;;19.50;99.90;;;;;;5056025;28;20036;-71
2022/07/23 05:24:55;;;;;;;10.52;9.35;;;19.50;99.90;;;;;;5017996;28;20048;-71
2022/07/23 05:27:27;;;;;;;16.33;10.60;;;19.50;99.90;;;;;;5035250;28;20792;-72
2022/07/23 05:29:59;;;;;;;11.32;10.07;;;19.50;99.90;;;;;;5050521;28;20039;-72
2022/07/23 05:32:35;;;;;;;12.18;9.77;;;19.50;99.90;;;;;;5049617;28;20538;-71
2022/07/23 05:35:12;;;;;;;10.02;9.02;;;19.50;99.90;;;;;;5048332;28;20056;-71
2022/07/23 05:37:55;;;;;;;11.50;9.55;;;19.60;99.90;;;;;;5032798;28;20033;-72
2022/07/23 05:40:27;;;;;;;11.32;10.20;;;19.60;99.90;;;;;;5047907;28;20044;-72
2022/07/23 05:42:59;;;;;;;13.25;10.18;;;19.50;99.90;;;;;;5038787;28;20045;-71
2022/07/23 05:45:31;;;;;;;12.07;9.57;;;19.50;99.90;;;;;;5055467;28;20464;-71
2022/07/23 05:48:04;;;;;;;10.80;9.80;;;19.40;99.90;;;;;;5050869;28;20037;-71
2022/07/23 05:50:45;;;;;;;11.50;10.18;;;19.30;99.90;;;;;;5034296;28;20090;-71
2022/07/23 05:53:30;;;;;;;11.40;10.27;;;19.20;99.90;;;;;;5048970;28;20087;-72
2022/07/23 05:56:24;;;;;;;11.48;10.38;;;19.10;99.90;;;;;;5035447;28;20575;-71
2022/07/23 05:58:56;;;;;;;11.88;10.48;;;19.20;99.90;;;;;;5052184;28;20406;-72
2022/07/23 06:01:28;;;;;;;11.10;9.43;;;19.20;99.90;;;;;;5014517;28;20144;-72
2022/07/23 06:04:03;;;;;;;13.85;10.40;;;19.20;99.90;;;;;;5033071;28;20041;-71
2022/07/23 06:06:38;;;;;;;13.13;10.73;;;19.20;99.90;;;;;;5050090;28;20068;-73
2022/07/23 06:09:13;;;;;;;10.23;9.23;;;19.20;99.90;;;;;;5036173;28;20082;-72
2022/07/23 06:11:45;;;;;;;9.38;8.48;;;19.20;99.90;;;;;;5033404;28;20059;-72
2022/07/23 06:14:17;;;;;;;10.27;8.90;;;19.20;99.90;;;;;;5050062;28;20049;-72
2022/07/23 06:16:53;;;;;;;9.63;8.63;;;19.20;99.90;;;;;;5034403;28;20052;-72
2022/07/23 06:19:26;;;;;;;9.60;7.75;;;19.10;99.90;;;;;;5032881;28;20407;-71
2022/07/23 06:21:53;;;;;;;11.45;8.82;;;19.10;99.90;;;;;;5020527;28;20132;-72
2022/07/23 06:24:19;;;;;;;10.02;8.73;;;19.10;99.90;;;;;;5037308;28;20106;-73
2022/07/23 06:26:52;;;;;;;8.23;7.43;;;19.20;99.90;;;;;;5050682;28;20045;-72
2022/07/23 06:29:24;;;;;;;8.75;7.85;;;19.30;99.90;;;;;;5033735;28;20739;-72
2022/07/23 06:31:55;;;;;;;8.95;8.05;;;19.40;99.90;;;;;;5053271;28;20125;-72
2022/07/23 06:34:27;;;;;;;9.05;8.15;;;19.40;99.90;;;;;;5042831;28;20044;-71
2022/07/23 06:37:00;;;;;;;9.07;7.82;;;19.40;99.90;;;;;;5035927;28;20127;-71
2022/07/23 06:39:31;;;;;;;8.88;7.93;;;19.40;99.90;;;;;;5048344;28;20041;-71
2022/07/23 06:42:03;;;;;;;10.15;9.00;;;19.50;99.90;;;;;;5048282;28;20075;-72
2022/07/23 06:44:38;;;;;;;10.02;8.48;;;19.30;99.90;;;;;;5047579;28;20547;-71
2022/07/23 06:47:10;;;;;;;8.32;7.53;;;19.20;99.90;;;;;;5051420;28;20076;-71
2022/07/23 06:49:36;;;;;;;13.13;8.82;;;19.30;99.90;;;;;;5033043;28;20067;-72
2022/07/23 06:52:09;;;;;;;9.73;8.57;;;19.40;99.90;;;;;;5050942;28;20048;-71
2022/07/23 06:54:40;;;;;;;8.82;7.90;;;19.50;99.90;;;;;;5033782;28;20430;-71
2022/07/23 06:57:12;;;;;;;9.40;8.43;;;19.60;99.90;;;;;;5016540;28;20126;-71
2022/07/23 06:59:44;;;;;;;8.82;7.93;;;19.50;99.90;;;;;;5034241;28;20036;-71
2022/07/23 07:02:15;;;;;;;10.32;8.68;;;19.50;99.90;;;;;;5039958;28;20042;-71
2022/07/23 07:04:48;;;;;;;10.50;8.43;;;19.50;99.90;;;;;;5028244;28;20132;-71
2022/07/23 07:07:20;;;;;;;9.95;8.95;;;19.50;99.90;;;;;;5039766;28;20036;-71
2022/07/23 07:09:52;;;;;;;10.18;9.18;;;19.40;99.90;;;;;;5043213;28;20043;-71
2022/07/23 07:12:23;;;;;;;10.48;9.45;;;19.40;99.90;;;;;;5045679;28;20033;-71
2022/07/23 07:14:56;;;;;;;9.73;8.82;;;19.40;99.90;;;;;;5037818;28;20087;-71
2022/07/23 07:17:23;;;;;;;9.30;8.40;;;19.50;99.90;;;;;;5036792;28;20056;-71
2022/07/23 07:19:55;;;;;;;10.02;8.98;;;19.60;99.90;;;;;;5037141;28;20520;-72
2022/07/23 07:22:26;;;;;;;11.10;8.30;;;19.70;99.90;;;;;;5047909;28;20521;-71
2022/07/23 07:24:58;;;;;;;8.93;8.10;;;19.80;99.90;;;;;;5030385;28;20079;-71
2022/07/23 07:27:25;;;;;;;8.25;7.45;;;20.00;99.90;;;;;;5030724;28;20049;-72
2022/07/23 07:29:51;;;;;;;8.90;8.00;;;20.10;99.90;;;;;;5037443;28;20511;-72
2022/07/23 07:32:23;;;;;;;8.40;7.55;;;20.20;99.90;;;;;;5052101;28;20041;-71
2022/07/23 07:34:55;;;;;;;8.82;7.65;;;20.30;99.90;;;;;;5043575;28;20064;-71
2022/07/23 07:37:22;;;;;;;8.55;7.65;;;20.30;99.90;;;;;;5047187;28;20136;-71
2022/07/23 07:39:53;;;;;;;8.82;8.02;;;20.30;99.90;;;;;;5049186;28;20045;-71
2022/07/23 07:42:25;;;;;;;9.80;8.82;;;20.40;99.90;;;;;;5048227;28;20060;-72
2022/07/23 07:44:58;;;;;;;9.70;8.77;;;20.30;99.90;;;;;;5067790;28;20047;-72
2022/07/23 07:47:29;;;;;;;11.82;9.95;;;20.30;99.90;;;;;;5053690;28;20055;-70
2022/07/23 07:50:01;;;;;;;10.20;9.20;;;20.20;99.90;;;;;;5050021;28;20673;-70
2022/07/23 07:52:28;;;;;;;11.95;10.15;;;20.30;99.90;;;;;;5052751;28;20045;-70
2022/07/23 07:55:00;;;;;;;12.25;9.52;;;20.30;99.90;;;;;;5045910;28;20041;-71
2022/07/23 07:57:32;;;;;;;11.48;10.02;;;20.40;99.90;;;;;;5071696;28;20055;-70
2022/07/23 08:00:06;;;;;;;12.00;10.90;;;20.40;99.90;;;;;;5054148;28;20036;-71
2022/07/23 08:02:47;;;;;;;12.38;9.88;;;20.50;99.90;;;;;;5041095;28;20052;-70
2022/07/23 08:05:21;;;;;;;12.45;11.35;;;20.60;99.90;;;;;;5030178;28;20041;-71
2022/07/23 08:07:53;;;;;;;13.75;10.85;;;20.70;99.90;;;;;;5042833;28;20408;-70
2022/07/23 08:10:26;;;;;;;10.63;9.65;;;20.80;99.90;;;;;;5049481;28;20047;-70
2022/07/23 08:12:58;;;;;;;;;;;21.00;99.90;;;;;;5044592;28;20044;-69
2022/07/23 08:15:31;;;;;;;11.10;10.00;;;21.10;99.90;;;;;;5063437;28;19928;-70
2022/07/23 08:17:58;;;;;;;11.43;10.32;;;21.30;99.90;;;;;;5053625;28;20071;-71
2022/07/23 08:20:30;;;;;;;11.15;10.05;;;21.40;99.90;;;;;;5050003;28;20053;-70
2022/07/23 08:23:08;;;;;;;10.68;9.38;;;21.50;99.90;;;;;;5043800;28;20111;-70
2022/07/23 08:25:41;;;;;;;12.63;10.55;;;21.50;99.90;;;;;;5039188;28;20051;-71
2022/07/23 08:28:14;;;;;;;12.32;11.02;;;21.60;99.90;;;;;;5049751;28;20057;-71
2022/07/23 08:30:46;;;;;;;7.80;6.97;;;21.60;99.90;;;;;;5041455;28;20572;-72
2022/07/23 08:33:16;;;;;;;9.15;6.97;;;21.60;99.90;;;;;;5024798;23;20056;-89
2022/07/23 08:35:51;;;;;;;7.38;6.68;;;21.80;99.90;;;;;;4999988;28;20049;-90
2022/07/23 08:38:19;;;;;;;8.75;6.85;;;21.80;99.90;;;;;;5022172;28;20085;-89
2022/07/23 08:40:51;;;;;;;10.52;6.70;;;21.90;99.90;;;;;;5020171;28;20485;-90
2022/07/23 08:43:25;;;;;;;7.22;6.53;;;22.10;99.90;;;;;;5017070;28;20041;-90
2022/07/23 08:45:59;;;;;;;7.72;6.72;;;22.30;99.90;;;;;;5042128;23;20340;-72
2022/07/23 08:48:33;;;;;;;7.53;6.50;;;22.50;99.90;;;;;;5037270;28;20496;-72
2022/07/23 08:51:06;;;;;;;7.85;7.00;;;22.60;99.90;;;;;;5031677;28;20040;-71
2022/07/23 08:53:38;;;;;;;8.02;7.22;;;22.80;99.90;;;;;;5012884;28;20050;-72
2022/07/23 08:56:10;;;;;;;8.07;7.38;;;22.90;99.90;;;;;;5039307;28;20046;-72
2022/07/23 08:58:42;;;;;;;7.28;6.57;;;23.00;99.90;;;;;;5006817;28;20140;-72
2022/07/23 09:01:14;;;;;;;7.68;6.97;;;23.10;99.90;;;;;;5040095;28;20589;-72
2022/07/23 09:03:46;;;;;;;8.43;7.63;;;23.10;99.90;;;;;;5016328;28;20046;-73
2022/07/23 09:06:18;;;;;;;8.18;7.40;;;23.20;99.90;;;;;;5037904;28;20051;-72
2022/07/23 09:08:49;;;;;;;8.40;7.40;;;23.30;99.90;;;;;;5037451;28;20069;-73
2022/07/23 09:11:21;;;;;;;8.60;7.80;;;23.50;99.90;;;;;;5032667;28;20042;-75
2022/07/23 09:13:58;;;;;;;8.63;7.70;;;23.60;99.90;;;;;;5036696;28;20049;-70
2022/07/23 09:16:31;;;;;;;8.82;7.75;;;23.70;99.90;;;;;;5037369;28;20048;-70
2022/07/23 09:19:04;;;;;;;;;;;23.80;99.90;;;;;;5036007;28;20042;-71
2022/07/23 09:21:38;;;;;;;9.98;8.85;;;23.90;99.90;;;;;;5040408;28;19948;-71
2022/07/23 09:24:11;;;;;;;8.40;7.57;;;24.00;99.90;;;;;;5031529;28;20057;-72
2022/07/23 09:26:47;;;;;;;8.75;7.95;;;24.10;99.90;;;;;;5022480;28;20060;-71
2022/07/23 09:29:27;;;;;;;8.02;7.25;;;24.40;99.90;;;;;;5042390;28;20052;-71
2022/07/23 09:32:02;;;;;;;8.35;7.57;;;24.50;99.90;;;;;;5023218;28;20052;-72
2022/07/23 09:34:38;;;;;;;7.95;7.20;;;24.50;99.90;;;;;;5007571;28;20076;-72
2022/07/23 09:37:13;;;;;;;9.48;7.43;;;24.50;99.90;;;;;;5026927;28;20608;-70
2022/07/23 09:39:48;;;;;;;8.10;7.28;;;24.50;99.90;;;;;;5012760;28;20080;-71
2022/07/23 09:42:28;;;;;;;7.28;6.57;;;24.50;99.90;;;;;;5021525;28;20053;-71
2022/07/23 09:45:01;;;;;;;8.25;7.40;;;24.50;99.90;;;;;;4997156;28;20048;-71
2022/07/23 09:47:32;;;;;;;8.90;7.80;;;24.60;99.90;;;;;;5040683;28;20044;-71
2022/07/23 09:50:12;;;;;;;7.72;6.70;;;24.60;99.90;;;;;;5044715;28;20041;-71
2022/07/23 09:52:49;;;;;;;8.57;6.72;;;24.70;99.90;;;;;;5012625;28;20064;-71
2022/07/23 09:55:38;;;;;;;7.53;6.40;;;24.80;99.90;;;;;;5034703;28;20505;-71
2022/07/23 09:58:13;;;;;;;9.55;6.50;;;24.90;99.90;;;;;;5036440;28;20417;-71
2022/07/23 10:00:49;;;;;;;8.77;6.40;;;24.90;99.90;;;;;;5011862;28;20041;-71
2022/07/23 10:03:22;;;;;;;6.93;6.20;;;25.00;99.90;;;;;;5011841;28;20113;-72
2022/07/23 10:06:29;;;;;;;6.85;6.03;;;25.20;99.90;;;;;;5022459;28;20053;-74
2022/07/23 10:09:24;;;;;;;7.45;6.60;;;25.10;99.90;;;;;;5028209;28;20056;-71
2022/07/23 10:15:09;;;;;;;8.38;6.75;;;25.20;99.90;;;;;;5035806;28;20560;-72
2022/07/23 10:17:41;;;;;;;7.60;6.90;;;25.10;99.90;;;;;;5017111;28;20033;-71
2022/07/23 10:20:13;;;;;;;7.60;6.80;;;25.00;99.90;;;;;;5030512;28;20073;-71
2022/07/23 10:23:06;;;;;;;7.80;6.97;;;24.70;99.90;;;;;;5015007;28;20037;-71
2022/07/23 10:25:51;;;;;;;8.23;7.43;;;24.60;99.90;;;;;;5026132;28;20076;-71
2022/07/23 10:28:46;;;;;;;7.60;6.85;;;24.90;99.90;;;;;;5031763;28;20041;-71
2022/07/23 10:31:58;;;;;;;7.72;7.05;;;25.20;99.90;;;;;;5010986;28;20505;-73
2022/07/23 10:34:52;;;;;;;7.60;6.80;;;25.40;99.90;;;;;;5027812;28;20043;-73
2022/07/23 10:37:43;;;;;;;8.93;8.02;;;25.50;99.90;;;;;;4988387;28;20072;-72
2022/07/23 10:40:17;;;;;;;8.20;7.25;;;25.50;99.90;;;;;;5027003;28;20088;-72
2022/07/23 10:42:45;;;;;;;8.05;7.35;;;25.40;99.90;;;;;;5008733;28;20050;-72
2022/07/23 10:45:44;;;;;;;9.02;7.72;;;25.20;99.90;;;;;;5015427;28;20052;-72
2022/07/23 10:48:20;;;;;;;9.07;8.18;;;25.20;99.90;;;;;;5008899;28;20075;-72
2022/07/23 10:51:13;;;;;;;7.65;6.93;;;25.40;99.90;;;;;;5020676;28;20060;-71
2022/07/23 10:53:50;;;;;;;8.48;7.55;;;25.50;99.90;;;;;;5037688;28;20037;-71
2022/07/23 10:57:04;;;;;;;8.88;8.07;;;25.70;99.90;;;;;;5033904;28;20052;-72
2022/07/23 11:00:11;;;;;;;9.02;8.20;;;25.70;99.90;;;;;;5018092;28;20739;-72
2022/07/23 11:02:48;;;;;;;9.07;7.60;;;25.60;99.90;;;;;;5017912;28;20036;-72
2022/07/23 11:05:26;;;;;;;10.77;7.82;;;25.90;99.90;;;;;;5008788;28;20045;-72
2022/07/23 11:08:03;;;;;;;8.77;7.97;;;26.20;99.90;;;;;;5005745;28;20042;-73
2022/07/23 11:10:38;;;;;;;11.25;8.65;;;26.40;99.90;;;;;;5032405;28;20044;-74
2022/07/23 11:13:22;;;;;;;8.43;7.65;;;26.40;99.90;;;;;;5033709;28;20064;-73
2022/07/23 11:16:04;;;;;;;9.27;8.38;;;26.60;99.90;;;;;;5025251;28;20059;-72
2022/07/23 11:18:42;;;;;;;8.93;8.13;;;26.80;99.90;;;;;;5020436;28;20048;-73
2022/07/23 11:21:23;;;;;;;9.70;8.75;;;26.80;99.90;;;;;;5040560;28;20404;-72
2022/07/23 11:24:11;;;;;;;9.25;8.48;;;26.60;99.90;;;;;;5012697;28;20046;-72
2022/07/23 11:26:53;;;;;;;9.65;8.80;;;26.50;99.90;;;;;;5025048;28;20057;-72
2022/07/23 11:29:30;;;;;;;10.27;9.27;;;26.60;99.90;;;;;;5031634;28;20045;-72
2022/07/23 11:32:19;;;;;;;9.55;8.52;;;26.70;99.90;;;;;;4989718;28;20065;-72
2022/07/23 11:34:48;;;;;;;17.50;9.98;;;26.60;99.90;;;;;;5029509;28;20525;-72
2022/07/23 11:37:37;;;;;;;14.23;9.00;;;26.50;99.90;;;;;;5032517;28;20049;-72
2022/07/23 11:40:12;;;;;;;10.23;9.25;;;26.60;99.90;;;;;;5024717;28;20520;-72
2022/07/23 11:43:05;;;;;;;8.50;7.53;;;26.90;99.90;;;;;;5010046;28;20045;-73
2022/07/23 11:45:41;;;;;;;9.13;8.23;;;26.90;99.90;;;;;;5032114;28;20045;-73
2022/07/23 11:48:15;;;;;;;9.48;8.57;;;27.00;99.90;;;;;;5040198;28;20644;-72
2022/07/23 11:50:47;;;;;;;9.82;8.93;;;27.10;99.90;;;;;;5018316;28;20494;-72
2022/07/23 11:53:27;;;;;;;10.10;9.07;;;27.20;99.90;;;;;;5007242;28;20045;-73
2022/07/23 11:56:08;;;;;;;8.82;8.00;;;27.20;99.90;;;;;;5018028;28;20041;-72
2022/07/23 11:58:55;;;;;;;8.70;7.85;;;27.00;99.90;;;;;;5010224;28;20387;-73
2022/07/23 12:01:27;;;;;;;8.73;8.00;;;26.80;99.90;;;;;;5013184;28;20513;-72
2022/07/23 12:03:59;;;;;;;8.30;7.50;;;26.60;99.90;;;;;;5010616;28;20060;-72
2022/07/23 12:06:38;;;;;;;10.43;8.27;;;26.40;99.90;;;;;;5023283;28;20037;-72
2022/07/23 12:09:10;;;;;;;9.10;8.25;;;26.40;99.90;;;;;;5026491;28;20049;-73
2022/07/23 12:11:37;;;;;;;9.93;8.40;;;26.60;99.90;;;;;;5038329;28;20064;-72
2022/07/23 12:14:09;;;;;;;9.93;8.93;;;26.70;99.90;;;;;;4994464;28;20049;-72
2022/07/23 12:16:41;;;;;;;9.00;7.90;;;26.60;99.90;;;;;;5041455;28;20050;-72
2022/07/23 12:19:08;;;;;;;9.30;8.35;;;26.80;99.90;;;;;;5011961;28;20038;-72
2022/07/23 12:21:40;;;;;;;9.20;8.38;;;26.90;99.90;;;;;;5012790;28;20485;-73
2022/07/23 12:24:12;;;;;;;8.93;8.13;;;27.00;99.90;;;;;;5019519;28;20061;-72
2022/07/23 12:26:38;;;;;;;9.38;8.43;;;27.10;99.90;;;;;;5018355;28;20049;-73
2022/07/23 12:29:10;;;;;;;9.85;8.85;;;27.10;99.90;;;;;;5004762;28;20037;-72
2022/07/23 12:31:42;;;;;;;9.48;8.57;;;27.00;99.90;;;;;;5020069;28;20048;-72
2022/07/23 12:34:15;;;;;;;9.55;8.43;;;27.20;99.90;;;;;;5003541;28;20069;-73
2022/07/23 12:36:47;;;;;;;10.25;9.27;;;27.30;99.90;;;;;;5021759;28;20038;-72
2022/07/23 12:39:32;;;;;;;9.68;8.75;;;27.20;99.90;;;;;;5032884;28;20056;-72
2022/07/23 12:42:11;;;;;;;10.15;8.95;;;27.20;99.90;;;;;;5007213;28;20061;-72
2022/07/23 12:45:06;;;;;;;10.07;8.98;;;27.10;99.90;;;;;;5027919;28;20041;-72
2022/07/23 12:47:59;;;;;;;12.10;9.95;;;26.70;99.90;;;;;;5028032;28;20049;-72
2022/07/23 12:50:43;;;;;;;9.93;8.98;;;26.60;99.90;;;;;;5023161;28;20522;-72
2022/07/23 12:53:45;;;;;;;10.00;9.02;;;26.60;99.90;;;;;;5015306;28;20046;-72
2022/07/23 12:56:32;;;;;;;10.02;9.02;;;26.60;99.90;;;;;;5011897;28;20045;-72
2022/07/23 12:59:05;;;;;;;11.90;10.73;;;26.60;99.90;;;;;;5010228;28;20044;-73
2022/07/23 13:01:48;;;;;;;11.10;9.45;;;26.60;99.90;;;;;;5033237;28;20048;-73
2022/07/23 13:04:24;;;;;;;10.07;8.90;;;26.70;99.90;;;;;;5015431;28;20432;-73
2022/07/23 13:07:01;;;;;;;9.75;8.85;;;26.70;99.90;;;;;;5022798;28;20052;-73
2022/07/23 13:09:34;;;;;;;9.70;8.75;;;26.80;99.90;;;;;;5044383;28;20045;-73
2022/07/23 13:12:06;;;;;;;10.35;9.25;;;27.10;99.90;;;;;;5045591;28;20048;-73
2022/07/23 13:14:38;;;;;;;10.35;9.35;;;27.30;99.90;;;;;;5020534;28;20041;-73
2022/07/23 13:17:05;;;;;;;10.75;8.77;;;27.50;99.90;;;;;;5023517;28;20060;-73
2022/07/23 13:19:36;;;;;;;9.10;8.30;;;27.60;99.90;;;;;;5029578;28;20048;-73
2022/07/23 13:22:08;;;;;;;10.60;9.48;;;27.70;99.90;;;;;;5052364;28;20052;-72